Time;durP1;ratioP1;P1;durP2;ratioP2;P2;SDS_P1;SDS_P2;PMS_P1;PMS_P2;Temp;Humidity;BMP_temperature;BMP_pressure;BME280_temperature;BME280_humidity;BME280_pressure;Samples;Min_cycle;Max_cycle;Signal;HPM_P1;HPM_P2
2022/11/17 00:00:43;;;;;;;11.05;7.07;;;10.40;99.90;;;10.48;100.00;98409.72;5114155;28;20240;-72
2022/11/17 00:03:14;;;;;;;10.40;6.85;;;10.40;99.90;;;10.50;100.00;98353.25;5113845;28;20032;-70
2022/11/17 00:05:45;;;;;;;10.80;6.80;;;10.40;99.90;;;10.54;100.00;98393.59;5114479;28;20434;-70
2022/11/17 00:08:13;;;;;;;14.93;6.47;;;10.40;99.90;;;10.54;100.00;98402.41;5095509;28;20047;-71
2022/11/17 00:10:41;;;;;;;14.15;6.43;;;10.40;99.90;;;10.55;100.00;98406.75;5114052;28;20062;-71
2022/11/17 00:16:05;;;;;;;10.45;6.05;;;10.40;99.90;;;10.57;100.00;98390.81;5054294;28;20077;-70
2022/11/17 00:21:27;;;;;;;9.95;5.35;;;10.50;99.90;;;10.56;100.00;98373.25;5020166;28;20057;-70
2022/11/17 00:23:56;;;;;;;7.35;4.72;;;10.50;99.90;;;10.71;100.00;98338.19;5114199;28;20058;-70
2022/11/17 00:26:27;;;;;;;11.27;4.80;;;10.60;99.90;;;10.72;100.00;98385.69;5113785;28;20048;-72
2022/11/17 00:28:57;;;;;;;6.75;4.90;;;10.60;99.90;;;10.66;100.00;98332.28;5095625;28;20047;-68
2022/11/17 00:34:16;;;;;;;9.02;4.93;;;10.60;99.90;;;10.76;100.00;98342.34;5095582;28;20409;-70
2022/11/17 00:36:48;;;;;;;8.57;4.63;;;10.60;99.90;;;10.78;100.00;98279.69;5113515;28;20153;-72
2022/11/17 00:39:19;;;;;;;11.75;4.57;;;10.70;99.90;;;10.84;100.00;98312.91;5113526;28;20036;-70
2022/11/17 00:41:47;;;;;;;6.22;4.57;;;10.70;99.90;;;10.85;100.00;98359.56;5113556;28;20044;-70
2022/11/17 00:44:16;;;;;;;8.70;4.53;;;10.70;99.90;;;10.93;100.00;98351.28;5113641;28;20047;-70
2022/11/17 00:46:44;;;;;;;5.03;4.28;;;10.80;99.90;;;10.94;100.00;98316.00;5113733;28;20130;-71
2022/11/17 00:49:13;;;;;;;5.22;3.95;;;10.80;99.90;;;11.00;100.00;98337.72;5113658;28;20036;-70
2022/11/17 00:51:42;;;;;;;5.93;4.30;;;10.90;99.90;;;11.03;100.00;98339.38;5113958;28;20052;-69
2022/11/17 00:54:14;;;;;;;5.55;3.95;;;10.90;99.90;;;11.04;100.00;98320.78;5113318;28;20047;-70
2022/11/17 00:56:42;;;;;;;6.72;4.55;;;10.90;99.90;;;11.08;100.00;98301.19;5113858;28;20071;-68
2022/11/17 00:59:11;;;;;;;6.32;4.22;;;10.90;99.90;;;10.99;100.00;98309.56;5095248;28;20059;-71
2022/11/17 01:01:40;;;;;;;6.40;4.20;;;10.90;99.90;;;11.10;100.00;98340.78;5113708;28;20135;-70
2022/11/17 01:04:09;;;;;;;6.93;4.07;;;10.90;99.90;;;11.14;100.00;98308.84;5114070;28;20066;-70
2022/11/17 01:06:40;;;;;;;8.68;4.25;;;11.00;99.90;;;11.09;100.00;98299.41;5113700;28;20051;-70
2022/11/17 01:09:14;;;;;;;4.47;4.07;;;11.00;99.90;;;11.09;100.00;98316.09;5113477;28;20374;-70
2022/11/17 01:11:43;;;;;;;4.97;4.20;;;11.00;99.90;;;10.96;100.00;98248.88;5113435;28;20052;-69
2022/11/17 01:14:15;;;;;;;5.03;4.50;;;11.00;99.90;;;11.15;100.00;98339.63;5113096;28;20036;-70
2022/11/17 01:16:44;;;;;;;5.28;4.50;;;11.00;99.90;;;11.18;100.00;98291.88;5113034;28;20042;-69
2022/11/17 01:19:14;;;;;;;3.90;3.60;;;11.10;99.90;;;11.16;100.00;98299.03;5113060;28;20454;-69
2022/11/17 01:21:43;;;;;;;5.25;4.10;;;11.10;99.90;;;11.26;100.00;98287.09;5113419;28;20040;-69
2022/11/17 01:24:16;;;;;;;8.82;4.65;;;11.10;99.90;;;11.33;100.00;98285.84;5113275;28;20052;-69
2022/11/17 01:26:46;;;;;;;4.15;3.75;;;11.20;99.90;;;11.40;100.00;98283.75;5113326;28;20404;-69
2022/11/17 01:29:16;;;;;;;6.18;4.25;;;11.30;99.90;;;11.41;100.00;98257.22;5113281;28;20040;-69
2022/11/17 01:31:49;;;;;;;4.28;3.97;;;11.30;99.90;;;11.24;100.00;98251.91;5113261;28;20044;-70
2022/11/17 01:34:18;;;;;;;4.65;4.25;;;11.20;99.90;;;11.39;100.00;98267.03;5095357;28;20135;-69
2022/11/17 01:39:34;;;;;;;4.22;3.83;;;11.30;99.90;;;11.56;100.00;98259.09;5117230;28;20381;-69
2022/11/17 01:42:04;;;;;;;4.38;3.97;;;11.40;99.90;;;11.65;100.00;98268.38;5116581;28;20046;-69
2022/11/17 01:45:01;;;;;;;5.93;4.40;;;11.50;99.90;;;11.71;100.00;98253.06;5116545;28;20042;-69
2022/11/17 01:47:42;;;;;;;6.38;4.57;;;11.60;99.90;;;11.67;100.00;98254.13;5096698;28;20054;-69
2022/11/17 01:50:25;;;;;;;5.00;4.28;;;11.50;99.90;;;11.67;100.00;98234.78;5116609;28;20063;-69
2022/11/17 01:52:58;;;;;;;5.85;4.20;;;11.50;99.90;;;11.69;100.00;98235.56;5116413;28;20032;-70
2022/11/17 01:55:35;;;;;;;6.60;4.50;;;11.50;99.90;;;11.60;100.00;98228.88;5116899;28;20043;-69
2022/11/17 01:58:09;;;;;;;6.20;4.45;;;11.50;99.90;;;11.67;100.00;98246.19;5116243;28;20039;-69
2022/11/17 02:00:37;;;;;;;6.25;4.50;;;11.50;99.90;;;11.62;100.00;98256.13;5116863;28;20051;-69
2022/11/17 02:03:05;;;;;;;9.73;4.85;;;11.50;99.90;;;11.62;100.00;98219.06;5116439;28;20040;-69
2022/11/17 02:05:43;;;;;;;4.97;4.22;;;11.50;99.90;;;11.56;100.00;98215.88;5116093;28;20381;-69
2022/11/17 02:08:12;;;;;;;10.27;4.47;;;11.40;99.90;;;11.62;100.00;98197.91;5116129;28;20489;-69
2022/11/17 02:10:42;;;;;;;8.07;4.60;;;11.50;99.90;;;11.68;100.00;98216.16;5115971;28;20120;-69
2022/11/17 02:13:19;;;;;;;5.70;3.88;;;11.50;99.90;;;11.61;100.00;98217.34;5115985;28;20092;-69
2022/11/17 02:15:47;;;;;;;4.57;3.95;;;11.50;99.90;;;11.08;100.00;98097.53;5116358;28;20036;-69
2022/11/17 02:18:17;;;;;;;7.60;4.78;;;11.50;99.90;;;11.77;100.00;98194.47;5115848;28;20040;-69
2022/11/17 02:21:07;;;;;;;6.43;4.63;;;11.60;99.90;;;11.75;100.00;98204.31;5116606;28;20089;-69
2022/11/17 02:24:12;;;;;;;4.57;4.00;;;11.60;99.90;;;11.34;100.00;98136.72;5115827;28;20408;-69
2022/11/17 02:27:38;;;;;;;8.25;3.95;;;11.60;99.90;;;11.74;100.00;98180.56;5114009;28;20059;-68
2022/11/17 02:30:10;;;;;;;7.13;4.53;;;11.60;99.90;;;11.81;100.00;98186.41;5115981;28;20045;-69
2022/11/17 02:32:49;;;;;;;7.88;4.10;;;11.60;99.90;;;11.87;100.00;98181.63;5115607;28;20047;-69
2022/11/17 02:35:25;;;;;;;10.63;4.70;;;11.70;99.90;;;11.69;100.00;98186.06;5115747;28;20062;-69
2022/11/17 02:38:08;;;;;;;6.63;4.35;;;11.70;99.90;;;11.94;100.00;98184.81;5115514;28;20401;-69
2022/11/17 02:40:43;;;;;;;9.32;4.28;;;11.80;99.90;;;11.88;100.00;98182.47;5116277;28;20061;-69
2022/11/17 02:46:07;;;;;;;9.45;4.15;;;11.80;99.90;;;11.76;100.00;98166.31;5097288;28;20496;-69
2022/11/17 02:48:39;;;;;;;10.82;4.60;;;11.70;99.90;;;11.77;100.00;98215.66;5114709;28;20047;-69
2022/11/17 02:51:15;;;;;;;7.55;3.60;;;11.60;99.90;;;11.87;100.00;98173.69;5115806;28;20055;-69
2022/11/17 02:53:44;;;;;;;9.48;4.40;;;11.70;99.90;;;11.67;100.00;98140.28;5097262;28;20059;-69
2022/11/17 02:56:12;;;;;;;9.27;4.47;;;11.80;99.90;;;11.93;100.00;98176.00;5115029;28;20489;-69
2022/11/17 02:58:41;;;;;;;8.80;4.10;;;11.80;99.90;;;11.91;100.00;98158.47;5115631;28;20048;-68
2022/11/17 03:01:37;;;;;;;11.10;4.45;;;11.80;99.90;;;11.95;100.00;98162.66;5115134;28;20040;-68
2022/11/17 03:04:28;;;;;;;10.70;4.28;;;11.80;99.90;;;12.00;100.00;98168.59;5097184;28;20514;-69
2022/11/17 03:07:13;;;;;;;10.13;4.47;;;11.80;99.90;;;12.01;100.00;98171.16;5114890;28;20126;-69
2022/11/17 03:09:50;;;;;;;7.57;4.13;;;11.80;99.90;;;12.10;100.00;98148.63;5115379;28;20051;-68
2022/11/17 03:12:24;;;;;;;7.72;3.83;;;11.90;99.90;;;12.20;100.00;98141.88;5114877;28;20405;-68
2022/11/17 03:15:02;;;;;;;9.35;4.22;;;12.00;99.90;;;12.25;100.00;98130.06;5115378;28;20040;-68
2022/11/17 03:17:37;;;;;;;9.68;4.68;;;12.10;99.90;;;12.24;100.00;98138.09;5114907;28;20054;-68
2022/11/17 03:20:13;;;;;;;7.97;4.18;;;12.10;99.90;;;12.22;100.00;98135.56;5115178;28;20042;-69
2022/11/17 03:22:50;;;;;;;12.18;4.07;;;12.00;99.90;;;12.23;100.00;98152.31;5114921;28;20051;-68
2022/11/17 03:25:22;;;;;;;11.38;4.25;;;12.10;99.90;;;12.16;100.00;98124.41;5114592;28;20035;-68
2022/11/17 03:27:55;;;;;;;9.18;4.47;;;12.00;99.90;;;12.20;100.00;98123.31;5114847;28;20055;-69
2022/11/17 03:30:25;;;;;;;8.90;4.32;;;12.10;99.90;;;12.23;100.00;98117.88;5114533;28;20044;-69
2022/11/17 03:33:03;;;;;;;5.18;3.50;;;12.00;99.90;;;12.16;100.00;98108.53;5114706;28;20050;-69
2022/11/17 03:35:36;;;;;;;7.45;3.70;;;12.00;99.90;;;12.11;100.00;98111.44;5114299;28;20404;-69
2022/11/17 03:38:10;;;;;;;6.97;3.78;;;12.00;99.90;;;12.09;100.00;98110.66;5096423;28;20485;-68
2022/11/17 03:40:42;;;;;;;10.00;4.05;;;11.90;99.90;;;12.11;100.00;98102.63;5114332;28;20477;-68
2022/11/17 03:43:13;;;;;;;10.77;3.92;;;12.00;99.90;;;12.04;100.00;98091.50;5114277;28;20397;-68
2022/11/17 03:45:49;;;;;;;8.57;4.20;;;11.90;99.90;;;11.99;100.00;98090.91;5114205;28;20044;-69
2022/11/17 03:48:22;;;;;;;10.45;3.97;;;11.80;99.90;;;11.97;100.00;98086.63;5114222;28;20048;-68
2022/11/17 03:50:57;;;;;;;9.38;4.05;;;11.80;99.90;;;11.95;100.00;98088.50;5114221;28;20062;-68
2022/11/17 03:53:25;;;;;;;11.25;4.75;;;11.80;99.90;;;12.00;100.00;98103.22;5114041;28;20488;-68
2022/11/17 03:56:02;;;;;;;9.55;4.97;;;11.80;99.90;;;11.98;100.00;98112.19;5113896;28;20042;-68
2022/11/17 03:58:34;;;;;;;10.90;4.30;;;11.80;99.90;;;11.89;100.00;98084.41;5114027;28;20075;-70
2022/11/17 04:01:08;;;;;;;9.23;4.00;;;11.70;99.90;;;11.88;100.00;98071.25;5113680;28;20050;-68
2022/11/17 04:03:36;;;;;;;8.95;4.20;;;11.80;99.90;;;11.98;100.00;98093.66;5113907;28;20405;-69
2022/11/17 04:06:06;;;;;;;10.98;4.55;;;11.80;99.90;;;11.80;100.00;98092.84;5113809;28;20051;-69
2022/11/17 04:08:34;;;;;;;7.68;4.05;;;11.60;99.90;;;11.77;100.00;98099.16;5114008;28;20051;-69
2022/11/17 04:16:35;;;;;;;11.65;4.32;;;11.40;99.90;;;11.61;100.00;98086.81;5113922;28;20043;-68
2022/11/17 04:19:03;;;;;;;11.93;4.95;;;11.50;99.90;;;11.57;100.00;98090.56;5114173;28;20052;-68
2022/11/17 04:21:32;;;;;;;11.02;4.68;;;11.40;99.90;;;11.47;100.00;98073.44;5113603;28;20039;-69
2022/11/17 04:24:00;;;;;;;10.13;4.18;;;11.40;99.90;;;11.46;100.00;98058.47;5113598;28;20043;-68
2022/11/17 04:29:14;;;;;;;7.85;4.05;;;11.30;99.90;;;11.48;100.00;98076.00;5114154;28;20040;-68
2022/11/17 04:31:44;;;;;;;8.63;3.78;;;11.30;99.90;;;11.37;100.00;98046.59;5113488;28;20130;-68
2022/11/17 04:34:12;;;;;;;6.38;4.22;;;11.20;99.90;;;11.40;100.00;98037.66;5113496;28;20043;-68
2022/11/17 04:36:45;;;;;;;9.73;4.40;;;11.20;99.90;;;11.49;100.00;98048.63;5114174;28;20032;-68
2022/11/17 04:39:15;;;;;;;6.07;4.18;;;11.30;99.90;;;11.55;100.00;98061.53;5113474;28;20040;-69
2022/11/17 04:42:02;;;;;;;6.55;4.55;;;11.40;99.90;;;11.56;100.00;98054.41;5113510;28;20047;-68
2022/11/17 04:44:32;;;;;;;8.38;4.13;;;11.40;99.90;;;11.65;100.00;98035.41;5113694;28;20073;-68
2022/11/17 04:47:02;;;;;;;5.47;3.85;;;11.50;99.90;;;11.64;100.00;98039.84;5113932;28;20047;-68
2022/11/17 04:49:32;;;;;;;5.90;3.95;;;11.50;99.90;;;11.68;100.00;98059.94;5113386;28;20565;-68
2022/11/17 04:52:01;;;;;;;7.53;4.63;;;11.50;99.90;;;11.78;100.00;98032.03;5113806;28;20055;-68
2022/11/17 04:54:29;;;;;;;7.07;4.45;;;11.60;99.90;;;11.80;100.00;98029.31;5113867;28;20055;-68
2022/11/17 04:56:57;;;;;;;8.80;4.22;;;11.60;99.90;;;11.85;100.00;98074.06;5113913;28;20048;-68
2022/11/17 04:59:26;;;;;;;5.88;4.15;;;11.70;99.90;;;11.96;100.00;98034.63;5095206;28;20048;-68
2022/11/17 05:01:54;;;;;;;5.32;4.07;;;11.80;99.90;;;11.93;100.00;98046.22;5113221;28;20036;-68
2022/11/17 05:07:09;;;;;;;9.35;4.50;;;11.80;99.90;;;11.87;100.00;98035.09;5096662;28;20420;-68
2022/11/17 05:09:37;;;;;;;8.25;4.15;;;11.70;99.90;;;11.78;100.00;98024.09;5113414;28;20090;-69
2022/11/17 05:14:52;;;;;;;7.57;4.82;;;11.70;99.90;;;11.91;100.00;98048.09;5117205;28;20069;-69
2022/11/17 05:17:19;;;;;;;9.05;4.47;;;11.80;99.90;;;11.91;100.00;98048.09;5116978;28;20493;-70
2022/11/17 05:19:49;;;;;;;8.18;4.85;;;11.80;99.90;;;12.07;100.00;98042.81;5117643;28;20491;-69
2022/11/17 05:25:07;;;;;;;8.10;5.07;;;11.90;99.90;;;12.13;100.00;98053.06;5116912;28;20046;-69
2022/11/17 05:27:36;;;;;;;7.68;4.10;;;12.00;99.90;;;12.09;100.00;98040.94;5117171;28;20058;-69
2022/11/17 05:30:08;;;;;;;7.95;4.65;;;12.00;99.90;;;11.98;100.00;98046.81;5116810;28;20481;-69
2022/11/17 05:32:36;;;;;;;8.27;4.68;;;11.90;99.90;;;11.99;100.00;98035.28;5116781;28;20422;-69
2022/11/17 05:35:07;;;;;;;9.75;4.40;;;11.80;99.90;;;12.01;100.00;98036.06;5116737;28;20083;-69
2022/11/17 05:37:36;;;;;;;8.48;4.85;;;11.80;99.90;;;11.98;100.00;98022.16;5116890;28;20051;-69
2022/11/17 05:40:05;;;;;;;8.60;4.47;;;11.80;99.90;;;11.98;100.00;98032.75;5098656;28;20092;-69
2022/11/17 05:42:34;;;;;;;12.18;5.05;;;11.80;99.90;;;12.03;100.00;98020.09;5116776;28;20062;-69
2022/11/17 05:45:03;;;;;;;8.98;4.13;;;11.90;99.90;;;12.03;100.00;98033.31;5116752;28;20054;-69
2022/11/17 05:47:31;;;;;;;7.95;4.05;;;11.80;99.90;;;12.07;100.00;98033.06;5116475;28;20499;-69
2022/11/17 05:49:59;;;;;;;10.70;4.25;;;11.90;99.90;;;12.09;100.00;98040.94;5116241;28;20048;-69
2022/11/17 05:52:29;;;;;;;7.85;4.85;;;11.90;99.90;;;12.03;100.00;98068.63;5116199;28;20508;-69
2022/11/17 05:54:57;;;;;;;10.80;4.63;;;11.90;99.90;;;12.08;100.00;98045.38;5116832;28;20476;-68
2022/11/17 05:57:30;;;;;;;10.15;4.57;;;11.90;99.90;;;12.10;100.00;98053.25;5116700;28;20085;-69
2022/11/17 06:00:03;;;;;;;11.38;4.60;;;12.00;99.90;;;12.09;100.00;98056.81;5116285;28;20044;-69
2022/11/17 06:02:45;;;;;;;7.15;4.30;;;11.90;99.90;;;12.07;100.00;98058.72;5116457;28;20503;-70
2022/11/17 06:05:14;;;;;;;6.63;4.20;;;12.00;99.90;;;12.09;100.00;98059.47;5116202;28;20407;-69
2022/11/17 06:07:49;;;;;;;9.32;4.00;;;12.00;99.90;;;12.13;100.00;98047.78;5116353;28;20058;-69
2022/11/17 06:10:17;;;;;;;9.83;4.00;;;12.00;99.90;;;12.01;100.00;98037.84;5116557;28;20389;-69
2022/11/17 06:12:46;;;;;;;8.23;4.15;;;11.90;99.90;;;11.86;100.00;98025.47;5115956;28;20039;-69
2022/11/17 06:15:14;;;;;;;9.45;3.70;;;11.80;99.90;;;11.91;100.00;98055.19;5116149;28;20416;-69
2022/11/17 06:17:49;;;;;;;7.78;4.03;;;11.80;99.90;;;11.88;100.00;98040.34;5115820;28;20040;-70
2022/11/17 06:20:21;;;;;;;12.13;4.57;;;11.80;99.90;;;11.88;100.00;98047.41;5116413;28;20122;-69
2022/11/17 06:22:51;;;;;;;6.45;4.03;;;11.80;99.90;;;11.90;100.00;98043.75;5115930;28;20047;-69
2022/11/17 06:25:20;;;;;;;11.35;4.40;;;11.80;99.90;;;11.93;100.00;98038.28;5116013;28;20044;-69
2022/11/17 06:27:51;;;;;;;7.35;3.95;;;11.80;99.90;;;11.92;100.00;98051.63;5115647;28;20397;-69
2022/11/17 06:30:20;;;;;;;5.60;3.67;;;11.80;99.90;;;11.93;100.00;98053.31;5115928;28;20048;-70
2022/11/17 06:32:50;;;;;;;7.60;3.63;;;11.80;99.90;;;12.02;100.00;98042.22;5115624;28;20447;-70
2022/11/17 06:35:18;;;;;;;7.28;3.45;;;11.90;99.90;;;12.03;100.00;98057.16;5115509;28;20427;-69
2022/11/17 06:37:46;;;;;;;7.82;3.53;;;11.90;99.90;;;12.04;100.00;98057.06;5115693;28;20462;-69
2022/11/17 06:40:17;;;;;;;8.57;3.80;;;11.90;99.90;;;12.04;100.00;98038.53;5115400;28;20046;-69
2022/11/17 06:45:27;;;;;;;7.35;3.65;;;11.90;99.90;;;11.98;100.00;98059.22;5112207;28;20481;-70
2022/11/17 06:47:56;;;;;;;8.55;3.60;;;11.90;99.90;;;12.00;100.00;98063.47;5115799;28;20084;-69
2022/11/17 06:50:24;;;;;;;7.65;4.00;;;11.90;99.90;;;11.84;100.00;98125.31;5115287;28;20054;-72
2022/11/17 06:52:56;;;;;;;6.28;4.03;;;11.80;99.90;;;11.70;100.00;98102.22;5115802;28;20096;-71
2022/11/17 06:55:26;;;;;;;5.65;4.32;;;11.70;99.90;;;11.70;100.00;98096.94;5115207;28;20099;-70
2022/11/17 06:58:00;;;;;;;7.78;4.40;;;11.60;99.90;;;11.66;100.00;98059.19;5115340;28;20043;-70
2022/11/17 07:00:29;;;;;;;6.60;3.95;;;11.60;99.90;;;11.68;100.00;98115.56;5115356;28;20051;-71
2022/11/17 07:03:02;;;;;;;9.95;4.07;;;11.50;99.90;;;11.61;100.00;98092.09;5114960;28;20043;-72
2022/11/17 07:05:31;;;;;;;6.13;3.95;;;11.50;99.90;;;11.57;100.00;98064.94;5115223;28;20513;-70
2022/11/17 07:08:01;;;;;;;5.35;3.10;;;11.50;99.90;;;10.96;100.00;97989.72;5114948;28;20047;-70
2022/11/17 07:10:32;;;;;;;7.10;4.07;;;11.50;99.90;;;11.50;100.00;98108.53;5115411;28;20488;-71
2022/11/17 07:13:00;;;;;;;6.22;3.50;;;11.40;99.90;;;11.46;100.00;98075.22;5114815;28;20036;-71
2022/11/17 07:15:29;;;;;;;6.60;3.72;;;11.40;99.90;;;11.50;100.00;98103.25;5114689;28;20040;-70
2022/11/17 07:17:58;;;;;;;7.78;3.70;;;11.40;99.90;;;11.39;100.00;98105.59;5114585;28;20043;-71
2022/11/17 07:20:26;;;;;;;9.23;3.88;;;11.30;99.90;;;11.54;100.00;98082.75;5114894;28;20039;-69
2022/11/17 07:22:59;;;;;;;6.28;3.92;;;11.40;99.90;;;11.56;100.00;98110.88;5115152;28;20056;-69
2022/11/17 07:25:27;;;;;;;7.28;3.83;;;11.40;99.90;;;11.48;100.00;98081.28;5114562;28;20119;-70
2022/11/17 07:28:01;;;;;;;6.55;3.97;;;11.40;99.90;;;11.53;100.00;98073.13;5096802;28;20039;-70
2022/11/17 07:30:29;;;;;;;9.48;3.85;;;11.40;99.90;;;11.49;100.00;98088.31;5114480;28;20074;-70
2022/11/17 07:32:59;;;;;;;10.30;4.10;;;11.40;99.90;;;11.48;100.00;98110.41;5114411;28;20042;-70
2022/11/17 07:35:27;;;;;;;8.45;4.22;;;11.40;99.90;;;11.53;100.00;98100.44;5114290;28;20180;-70
2022/11/17 07:38:00;;;;;;;7.82;4.28;;;11.40;99.90;;;11.53;100.00;98099.59;5114211;28;20065;-70
2022/11/17 07:40:28;;;;;;;8.18;3.83;;;11.40;99.90;;;11.42;100.00;98107.25;5114587;28;20071;-72
2022/11/17 07:42:57;;;;;;;10.05;4.13;;;11.40;99.90;;;11.39;100.00;98068.56;5114478;28;20035;-70
2022/11/17 07:45:27;;;;;;;6.43;4.05;;;11.40;99.90;;;11.53;100.00;98089.88;5114152;28;20477;-71
2022/11/17 07:48:03;;;;;;;7.22;4.15;;;11.40;99.90;;;11.48;100.00;98076.00;5114168;28;20047;-71
2022/11/17 07:50:32;;;;;;;8.85;3.75;;;11.40;99.90;;;11.33;100.00;98092.69;5114165;28;20119;-71
2022/11/17 07:53:00;;;;;;;8.77;4.55;;;11.30;99.90;;;11.38;100.00;98127.69;5114567;28;20075;-71
2022/11/17 07:55:29;;;;;;;9.50;4.20;;;11.30;99.90;;;11.46;100.00;98114.06;5114022;28;20088;-72
2022/11/17 07:57:59;;;;;;;7.78;4.10;;;11.40;99.90;;;11.45;100.00;98113.22;5113910;28;20061;-71
2022/11/17 08:00:32;;;;;;;8.75;4.50;;;11.40;99.90;;;11.41;100.00;98151.38;5113952;28;20065;-70
2022/11/17 08:03:02;;;;;;;12.68;4.78;;;11.40;99.90;;;11.51;100.00;98091.72;5114230;28;20044;-70
2022/11/17 08:05:31;;;;;;;10.70;4.22;;;11.40;99.90;;;11.62;100.00;98110.53;5113806;28;20040;-70
2022/11/17 08:08:00;;;;;;;10.10;4.57;;;11.50;99.90;;;11.58;100.00;98116.94;5114069;28;20051;-70
2022/11/17 08:10:30;;;;;;;9.77;3.90;;;11.50;99.90;;;11.68;100.00;98115.56;5113802;28;20071;-70
2022/11/17 08:12:59;;;;;;;14.50;5.32;;;11.60;99.90;;;11.62;100.00;98097.31;5114022;28;20458;-69
2022/11/17 08:15:30;;;;;;;9.80;4.32;;;11.50;99.90;;;11.71;100.00;98125.97;5113697;28;20496;-70
2022/11/17 08:18:00;;;;;;;;;;;11.60;99.90;;;11.62;100.00;98121.13;5114060;28;20047;-71
2022/11/17 08:20:29;;;;;;;14.13;4.78;;;11.50;99.90;;;11.59;100.00;98104.56;5113644;28;19968;-70
2022/11/17 08:22:58;;;;;;;13.80;5.05;;;11.50;99.90;;;11.69;100.00;98127.00;5113574;28;20039;-70
2022/11/17 08:25:27;;;;;;;18.98;4.45;;;11.60;99.90;;;11.55;100.00;98159.47;5113484;28;20044;-70
2022/11/17 08:27:56;;;;;;;11.48;4.80;;;11.40;99.90;;;11.67;100.00;98113.81;5113564;28;20572;-70
2022/11/17 08:30:27;;;;;;;8.10;4.10;;;11.50;99.90;;;11.59;100.00;98142.44;5113462;28;20052;-71
2022/11/17 08:32:57;;;;;;;10.77;4.07;;;11.50;99.90;;;11.59;100.00;98174.22;5113687;28;20051;-70
2022/11/17 08:35:26;;;;;;;10.32;4.65;;;11.50;99.90;;;11.63;100.00;98130.75;5113751;28;20140;-69
2022/11/17 08:38:00;;;;;;;13.02;4.88;;;11.50;99.90;;;11.64;100.00;98161.63;5113852;28;20048;-70
2022/11/17 08:40:28;;;;;;;10.88;4.28;;;11.50;99.90;;;11.63;100.00;98149.31;5113593;28;20071;-70
2022/11/17 08:42:56;;;;;;;7.22;4.07;;;11.50;99.90;;;11.65;100.00;98159.84;5113415;28;20074;-70
2022/11/17 08:45:29;;;;;;;11.48;4.65;;;11.50;99.90;;;11.63;100.00;98154.59;5113452;28;20092;-70
2022/11/17 08:47:59;;;;;;;9.98;4.50;;;11.50;99.90;;;11.68;100.00;98141.16;5116806;28;20043;-70
2022/11/17 08:50:27;;;;;;;9.50;4.00;;;11.60;99.90;;;11.63;100.00;98170.47;5117812;28;20138;-71
2022/11/17 08:52:56;;;;;;;8.73;4.03;;;11.50;99.90;;;11.66;100.00;98157.13;5118042;28;20372;-70
2022/11/17 08:55:25;;;;;;;9.55;4.22;;;11.50;99.90;;;11.59;100.00;98153.03;5117407;28;20058;-70
2022/11/17 08:57:54;;;;;;;7.13;3.75;;;11.50;99.90;;;11.68;100.00;98159.69;5117435;28;20047;-71
2022/11/17 09:00:23;;;;;;;8.70;4.18;;;11.50;99.90;;;11.70;100.00;98177.22;5117373;28;20035;-70
2022/11/17 09:02:51;;;;;;;8.05;3.63;;;11.50;99.90;;;11.58;100.00;98147.84;5117399;28;20130;-70
2022/11/17 09:05:21;;;;;;;7.38;3.88;;;11.50;99.90;;;11.75;100.00;98167.22;5117349;28;20491;-71
2022/11/17 09:07:49;;;;;;;8.98;4.00;;;11.60;99.90;;;11.67;100.00;98179.19;5117835;28;20040;-70
2022/11/17 09:10:18;;;;;;;7.88;4.10;;;11.50;99.90;;;11.62;100.00;98184.66;5117433;28;20134;-70
2022/11/17 09:12:46;;;;;;;6.47;3.58;;;11.50;99.90;;;11.59;100.00;98207.78;5117731;28;20130;-70
2022/11/17 09:15:15;;;;;;;8.50;3.95;;;11.50;99.90;;;11.62;100.00;98207.63;5117345;28;20050;-70
2022/11/17 09:17:46;;;;;;;6.80;4.53;;;11.50;99.90;;;11.58;100.00;98208.72;5117086;28;20126;-70
2022/11/17 09:20:15;;;;;;;10.15;3.85;;;11.50;99.90;;;11.61;100.00;98187.41;5117367;28;20052;-70
2022/11/17 09:22:45;;;;;;;11.65;4.30;;;11.50;99.90;;;11.60;100.00;98170.66;5116876;28;20047;-70
2022/11/17 09:25:15;;;;;;;9.35;4.55;;;11.40;99.90;;;11.63;100.00;98185.53;5117182;28;20040;-70
2022/11/17 09:27:43;;;;;;;8.38;4.53;;;11.50;99.90;;;11.65;100.00;98213.66;5117176;28;20043;-70
2022/11/17 09:30:13;;;;;;;10.30;4.38;;;11.50;99.90;;;11.57;100.00;98197.28;5117070;28;20400;-70
2022/11/17 09:32:41;;;;;;;10.73;4.90;;;11.50;99.90;;;11.60;100.00;98218.31;5116817;28;20051;-70
2022/11/17 09:35:10;;;;;;;10.75;4.40;;;11.40;99.90;;;11.57;100.00;98196.44;5116983;28;20079;-70
2022/11/17 09:37:38;;;;;;;8.18;4.35;;;11.40;99.90;;;11.69;100.00;98209.06;5116673;28;20058;-70
2022/11/17 09:40:14;;;;;;;11.95;4.38;;;11.50;99.90;;;11.66;100.00;98212.72;5116537;28;20106;-70
2022/11/17 09:42:43;;;;;;;10.88;4.47;;;11.50;99.90;;;11.67;100.00;98232.97;5116665;28;20131;-70
2022/11/17 09:45:18;;;;;;;12.40;4.85;;;11.50;99.90;;;11.73;100.00;98224.69;5116562;28;20382;-70
2022/11/17 09:47:52;;;;;;;13.98;4.75;;;11.60;99.90;;;11.74;100.00;98207.03;5116537;28;20067;-70
2022/11/17 09:50:41;;;;;;;15.30;4.97;;;11.60;99.90;;;11.73;100.00;98240.59;5116717;28;20071;-70
2022/11/17 09:53:15;;;;;;;12.48;4.57;;;11.60;99.90;;;11.69;100.00;98233.72;5117017;28;20149;-70
2022/11/17 09:55:49;;;;;;;11.00;4.63;;;11.60;99.90;;;11.70;100.00;98235.47;5116650;28;20054;-70
2022/11/17 09:58:30;;;;;;;12.02;4.60;;;11.60;99.90;;;11.74;100.00;98246.75;5116008;28;20040;-70
2022/11/17 10:00:58;;;;;;;11.35;4.95;;;11.60;99.90;;;11.72;100.00;98256.56;5116221;28;20039;-70
2022/11/17 10:03:29;;;;;;;11.90;4.15;;;11.60;99.90;;;11.67;100.00;98259.44;5116767;28;20039;-70
2022/11/17 10:05:59;;;;;;;13.43;4.75;;;11.60;99.90;;;11.68;100.00;98274.41;5116221;28;20043;-70
2022/11/17 10:08:36;;;;;;;12.73;4.63;;;11.50;99.90;;;11.58;100.00;98262.53;5116169;28;20100;-70
2022/11/17 10:13:55;;;;;;;11.27;4.25;;;11.50;99.90;;;11.68;100.00;98269.09;5115552;28;20587;-69
2022/11/17 10:16:23;;;;;;;12.40;4.50;;;11.50;99.90;;;11.65;100.00;98240.13;5115955;28;20042;-69
2022/11/17 10:18:52;;;;;;;10.15;4.30;;;11.50;99.90;;;11.76;100.00;98272.22;5097847;28;20481;-69
2022/11/17 10:21:20;;;;;;;13.88;4.78;;;11.60;99.90;;;11.76;100.00;98282.81;5097908;28;20046;-69
2022/11/17 10:23:57;;;;;;;12.98;4.68;;;11.60;99.90;;;11.55;100.00;98243.28;5116065;28;20520;-69
2022/11/17 10:26:27;;;;;;;10.75;4.25;;;11.60;99.90;;;11.70;100.00;98299.00;5115739;28;20035;-69
2022/11/17 10:29:07;;;;;;;11.23;5.05;;;11.50;99.90;;;11.71;100.00;98278.69;5116272;28;20133;-69
2022/11/17 10:31:44;;;;;;;21.15;6.07;;;11.50;99.90;;;11.64;100.00;98299.28;5116250;28;20044;-70
2022/11/17 10:34:30;;;;;;;11.80;4.60;;;11.50;99.90;;;11.63;100.00;98308.13;5115884;28;20043;-69
2022/11/17 10:37:28;;;;;;;12.77;4.65;;;11.50;99.90;;;11.60;100.00;98303.00;5115506;28;20489;-69
2022/11/17 10:40:16;;;;;;;7.78;4.38;;;11.50;99.90;;;11.68;100.00;98310.59;5115860;28;20046;-69
2022/11/17 10:43:18;;;;;;;11.93;4.57;;;11.50;99.90;;;11.60;100.00;98299.50;5115724;28;20043;-69
2022/11/17 10:45:47;;;;;;;9.88;4.22;;;11.40;99.90;;;11.53;100.00;98306.03;5115626;28;20524;-70
2022/11/17 10:48:28;;;;;;;11.38;4.25;;;11.40;99.90;;;11.50;100.00;98279.69;5115596;28;20055;-69
2022/11/17 10:50:58;;;;;;;;;;;11.40;99.90;;;11.60;100.00;98284.47;5115536;28;20047;-69
2022/11/17 10:53:36;;;;;;;10.80;3.92;;;11.40;99.90;;;11.65;99.92;98285.13;5115624;28;19926;-69
2022/11/17 10:56:15;;;;;;;11.82;4.45;;;11.40;99.90;;;11.68;99.80;98287.63;5115258;28;20096;-69
2022/11/17 10:59:12;;;;;;;8.60;3.90;;;11.50;99.90;;;11.61;99.42;98304.72;5115195;28;20108;-69
2022/11/17 11:01:43;;;;;;;9.27;4.30;;;11.50;99.90;;;11.60;100.00;98318.03;5115369;28;20048;-69
2022/11/17 11:04:30;;;;;;;12.85;3.95;;;11.40;99.90;;;11.63;100.00;98318.72;5115083;28;20123;-69
2022/11/17 11:07:13;;;;;;;10.70;4.10;;;11.50;99.90;;;11.69;100.00;98328.22;5114940;28;20485;-69